sensor_id;sensor_type;location;lat;lon;timestamp;temperature;humidity
59311;DHT22;45078;51.654;21.250;2022-10-16T00:01:29;13.10;99.90
59311;DHT22;45078;51.654;21.250;2022-10-16T00:03:56;13.00;99.90
59311;DHT22;45078;51.654;21.250;2022-10-16T00:06:23;13.00;99.90
59311;DHT22;45078;51.654;21.250;2022-10-16T00:08:49;12.90;99.90
59311;DHT22;45078;51.654;21.250;2022-10-16T00:11:23;12.90;99.90
59311;DHT22;45078;51.654;21.250;2022-10-16T00:13:51;12.90;99.90
59311;DHT22;45078;51.654;21.250;2022-10-16T00:16:18;12.90;99.90
59311;DHT22;45078;51.654;21.250;2022-10-16T00:18:44;12.90;99.90
59311;DHT22;45078;51.654;21.250;2022-10-16T00:21:19;12.90;99.90
59311;DHT22;45078;51.654;21.250;2022-10-16T00:23:45;12.90;99.90
59311;DHT22;45078;51.654;21.250;2022-10-16T00:26:15;12.90;99.90
59311;DHT22;45078;51.654;21.250;2022-10-16T00:28:41;12.90;99.90
59311;DHT22;45078;51.654;21.250;2022-10-16T00:31:09;12.90;99.90
59311;DHT22;45078;51.654;21.250;2022-10-16T00:33:37;12.90;99.90
59311;DHT22;45078;51.654;21.250;2022-10-16T00:36:04;12.90;99.90
59311;DHT22;45078;51.654;21.250;2022-10-16T00:38:30;12.90;99.90
59311;DHT22;45078;51.654;21.250;2022-10-16T00:40:56;12.90;99.90
59311;DHT22;45078;51.654;21.250;2022-10-16T00:46:37;12.90;99.90
59311;DHT22;45078;51.654;21.250;2022-10-16T00:51:40;12.90;99.90
59311;DHT22;45078;51.654;21.250;2022-10-16T00:54:31;12.90;99.90
59311;DHT22;45078;51.654;21.250;2022-10-16T00:56:58;12.90;99.90
59311;DHT22;45078;51.654;21.250;2022-10-16T00:59:28;12.90;99.90
59311;DHT22;45078;51.654;21.250;2022-10-16T01:01:55;12.90;99.90
59311;DHT22;45078;51.654;21.250;2022-10-16T01:04:21;12.90;99.90
59311;DHT22;45078;51.654;21.250;2022-10-16T01:07:12;12.90;99.90
59311;DHT22;45078;51.654;21.250;2022-10-16T01:12:41;12.90;99.90
59311;DHT22;45078;51.654;21.250;2022-10-16T01:24:17;12.90;99.90
59311;DHT22;45078;51.654;21.250;2022-10-16T01:29:52;12.90;99.90
59311;DHT22;45078;51.654;21.250;2022-10-16T01:32:36;13.00;99.90
59311;DHT22;45078;51.654;21.250;2022-10-16T01:37:51;13.00;99.90
59311;DHT22;45078;51.654;21.250;2022-10-16T01:40:20;13.00;99.90
59311;DHT22;45078;51.654;21.250;2022-10-16T01:42:53;13.10;99.90
59311;DHT22;45078;51.654;21.250;2022-10-16T01:45:21;13.00;99.90
59311;DHT22;45078;51.654;21.250;2022-10-16T01:47:49;13.10;99.90
59311;DHT22;45078;51.654;21.250;2022-10-16T01:50:16;13.10;99.90
59311;DHT22;45078;51.654;21.250;2022-10-16T01:52:46;13.10;99.90
59311;DHT22;45078;51.654;21.250;2022-10-16T01:55:19;13.10;99.90
59311;DHT22;45078;51.654;21.250;2022-10-16T01:57:47;13.10;99.90
59311;DHT22;45078;51.654;21.250;2022-10-16T02:00:17;13.10;99.90
59311;DHT22;45078;51.654;21.250;2022-10-16T02:02:47;13.10;99.90
59311;DHT22;45078;51.654;21.250;2022-10-16T02:08:18;13.00;99.90
59311;DHT22;45078;51.654;21.250;2022-10-16T02:10:44;13.00;99.90
59311;DHT22;45078;51.654;21.250;2022-10-16T02:13:28;12.90;99.90
59311;DHT22;45078;51.654;21.250;2022-10-16T02:15:54;12.90;99.90
59311;DHT22;45078;51.654;21.250;2022-10-16T02:18:20;12.90;99.90
59311;DHT22;45078;51.654;21.250;2022-10-16T02:21:00;12.90;99.90
59311;DHT22;45078;51.654;21.250;2022-10-16T02:26:09;12.90;99.90
59311;DHT22;45078;51.654;21.250;2022-10-16T02:31:20;12.90;99.90
59311;DHT22;45078;51.654;21.250;2022-10-16T02:33:48;12.80;99.90
59311;DHT22;45078;51.654;21.250;2022-10-16T02:36:16;12.80;99.90
59311;DHT22;45078;51.654;21.250;2022-10-16T02:38:42;12.80;99.90
59311;DHT22;45078;51.654;21.250;2022-10-16T02:41:08;12.80;99.90
59311;DHT22;45078;51.654;21.250;2022-10-16T02:43:34;12.70;99.90
59311;DHT22;45078;51.654;21.250;2022-10-16T02:46:00;12.70;99.90
59311;DHT22;45078;51.654;21.250;2022-10-16T02:48:26;12.70;99.90
59311;DHT22;45078;51.654;21.250;2022-10-16T02:50:51;12.70;99.90
59311;DHT22;45078;51.654;21.250;2022-10-16T02:53:17;12.70;99.90
59311;DHT22;45078;51.654;21.250;2022-10-16T02:55:43;12.80;99.90
59311;DHT22;45078;51.654;21.250;2022-10-16T02:58:09;12.70;99.90
59311;DHT22;45078;51.654;21.250;2022-10-16T03:00:35;12.80;99.90
59311;DHT22;45078;51.654;21.250;2022-10-16T03:03:00;12.80;99.90
59311;DHT22;45078;51.654;21.250;2022-10-16T03:05:26;12.90;99.90
59311;DHT22;45078;51.654;21.250;2022-10-16T03:07:52;12.90;99.90
59311;DHT22;45078;51.654;21.250;2022-10-16T03:10:18;13.00;99.90
59311;DHT22;45078;51.654;21.250;2022-10-16T03:12:44;13.10;99.90
59311;DHT22;45078;51.654;21.250;2022-10-16T03:15:10;13.00;99.90
59311;DHT22;45078;51.654;21.250;2022-10-16T03:17:36;13.00;99.90
59311;DHT22;45078;51.654;21.250;2022-10-16T03:20:03;13.00;99.90
59311;DHT22;45078;51.654;21.250;2022-10-16T03:22:29;13.10;99.90
59311;DHT22;45078;51.654;21.250;2022-10-16T03:24:54;13.10;99.90
59311;DHT22;45078;51.654;21.250;2022-10-16T03:27:21;13.20;99.90
59311;DHT22;45078;51.654;21.250;2022-10-16T03:29:46;13.10;99.90
59311;DHT22;45078;51.654;21.250;2022-10-16T03:32:12;13.10;99.90
59311;DHT22;45078;51.654;21.250;2022-10-16T03:34:38;13.10;99.90
59311;DHT22;45078;51.654;21.250;2022-10-16T03:37:04;13.10;99.90
59311;DHT22;45078;51.654;21.250;2022-10-16T03:39:30;13.10;99.90
59311;DHT22;45078;51.654;21.250;2022-10-16T03:41:56;13.10;99.90
59311;DHT22;45078;51.654;21.250;2022-10-16T03:44:21;13.00;99.90
59311;DHT22;45078;51.654;21.250;2022-10-16T03:46:47;13.10;99.90
59311;DHT22;45078;51.654;21.250;2022-10-16T03:49:13;13.00;99.90
59311;DHT22;45078;51.654;21.250;2022-10-16T03:51:39;13.00;99.90
59311;DHT22;45078;51.654;21.250;2022-10-16T03:54:04;13.00;99.90
59311;DHT22;45078;51.654;21.250;2022-10-16T03:56:30;13.10;99.90
59311;DHT22;45078;51.654;21.250;2022-10-16T03:58:56;13.10;99.90
59311;DHT22;45078;51.654;21.250;2022-10-16T04:01:22;13.10;99.90
59311;DHT22;45078;51.654;21.250;2022-10-16T04:03:47;13.10;99.90
59311;DHT22;45078;51.654;21.250;2022-10-16T04:06:16;13.10;99.90
59311;DHT22;45078;51.654;21.250;2022-10-16T04:08:43;13.10;99.90
59311;DHT22;45078;51.654;21.250;2022-10-16T04:11:09;13.10;99.90
59311;DHT22;45078;51.654;21.250;2022-10-16T04:13:35;13.10;99.90
59311;DHT22;45078;51.654;21.250;2022-10-16T04:16:01;13.00;99.90
59311;DHT22;45078;51.654;21.250;2022-10-16T04:18:27;13.00;99.90
59311;DHT22;45078;51.654;21.250;2022-10-16T04:20:53;13.10;99.90
59311;DHT22;45078;51.654;21.250;2022-10-16T04:23:19;13.10;99.90
59311;DHT22;45078;51.654;21.250;2022-10-16T04:25:45;13.00;99.90
59311;DHT22;45078;51.654;21.250;2022-10-16T04:28:11;13.00;99.90
59311;DHT22;45078;51.654;21.250;2022-10-16T04:30:40;13.00;99.90
59311;DHT22;45078;51.654;21.250;2022-10-16T04:33:08;13.00;99.90
59311;DHT22;45078;51.654;21.250;2022-10-16T04:35:34;13.00;99.90
59311;DHT22;45078;51.654;21.250;2022-10-16T04:37:59;13.00;99.90
59311;DHT22;45078;51.654;21.250;2022-10-16T04:40:25;12.90;99.90
59311;DHT22;45078;51.654;21.250;2022-10-16T04:42:51;13.00;99.90
59311;DHT22;45078;51.654;21.250;2022-10-16T04:45:17;12.90;99.90
59311;DHT22;45078;51.654;21.250;2022-10-16T04:47:43;13.00;99.90
59311;DHT22;45078;51.654;21.250;2022-10-16T04:50:09;12.90;99.90
59311;DHT22;45078;51.654;21.250;2022-10-16T04:52:34;12.90;99.90
59311;DHT22;45078;51.654;21.250;2022-10-16T04:55:00;12.70;99.90
59311;DHT22;45078;51.654;21.250;2022-10-16T04:57:29;12.70;99.90
59311;DHT22;45078;51.654;21.250;2022-10-16T04:59:55;12.70;99.90
59311;DHT22;45078;51.654;21.250;2022-10-16T05:02:20;12.80;99.90
59311;DHT22;45078;51.654;21.250;2022-10-16T05:04:46;12.70;99.90
59311;DHT22;45078;51.654;21.250;2022-10-16T05:07:12;12.70;99.90
59311;DHT22;45078;51.654;21.250;2022-10-16T05:09:38;12.80;99.90
59311;DHT22;45078;51.654;21.250;2022-10-16T05:12:04;12.70;99.90
59311;DHT22;45078;51.654;21.250;2022-10-16T05:14:29;12.70;99.90
59311;DHT22;45078;51.654;21.250;2022-10-16T05:16:56;12.70;99.90
59311;DHT22;45078;51.654;21.250;2022-10-16T05:19:22;12.80;99.90
59311;DHT22;45078;51.654;21.250;2022-10-16T05:21:48;12.70;99.90
59311;DHT22;45078;51.654;21.250;2022-10-16T05:24:13;12.70;99.90
59311;DHT22;45078;51.654;21.250;2022-10-16T05:26:39;12.80;99.90
59311;DHT22;45078;51.654;21.250;2022-10-16T05:29:05;12.80;99.90
59311;DHT22;45078;51.654;21.250;2022-10-16T05:31:31;12.80;99.90
59311;DHT22;45078;51.654;21.250;2022-10-16T05:33:59;12.80;99.90
59311;DHT22;45078;51.654;21.250;2022-10-16T05:36:25;12.80;99.90
59311;DHT22;45078;51.654;21.250;2022-10-16T05:38:51;12.90;99.90
59311;DHT22;45078;51.654;21.250;2022-10-16T05:41:17;12.90;99.90
59311;DHT22;45078;51.654;21.250;2022-10-16T05:43:47;13.10;99.90
59311;DHT22;45078;51.654;21.250;2022-10-16T05:46:13;13.50;99.90
59311;DHT22;45078;51.654;21.250;2022-10-16T05:48:39;13.80;99.90
59311;DHT22;45078;51.654;21.250;2022-10-16T05:51:07;14.00;99.90
59311;DHT22;45078;51.654;21.250;2022-10-16T05:53:35;14.00;99.90
59311;DHT22;45078;51.654;21.250;2022-10-16T05:56:02;14.30;99.90
59311;DHT22;45078;51.654;21.250;2022-10-16T05:58:31;14.20;99.90
59311;DHT22;45078;51.654;21.250;2022-10-16T06:01:05;14.10;99.90
59311;DHT22;45078;51.654;21.250;2022-10-16T06:03:33;14.10;99.90
59311;DHT22;45078;51.654;21.250;2022-10-16T06:05:59;14.50;99.90
59311;DHT22;45078;51.654;21.250;2022-10-16T06:08:25;15.00;99.90
59311;DHT22;45078;51.654;21.250;2022-10-16T06:11:04;15.50;99.90
59311;DHT22;45078;51.654;21.250;2022-10-16T06:13:30;15.80;99.90
59311;DHT22;45078;51.654;21.250;2022-10-16T06:15:58;15.90;99.90
59311;DHT22;45078;51.654;21.250;2022-10-16T06:18:24;16.30;99.90
59311;DHT22;45078;51.654;21.250;2022-10-16T06:20:50;16.60;99.90
59311;DHT22;45078;51.654;21.250;2022-10-16T06:23:16;16.30;99.90
59311;DHT22;45078;51.654;21.250;2022-10-16T06:25:42;16.30;99.90
59311;DHT22;45078;51.654;21.250;2022-10-16T06:28:07;16.40;99.90
59311;DHT22;45078;51.654;21.250;2022-10-16T06:30:33;16.80;99.90
59311;DHT22;45078;51.654;21.250;2022-10-16T06:32:59;17.00;99.90
59311;DHT22;45078;51.654;21.250;2022-10-16T06:35:24;17.10;99.90
59311;DHT22;45078;51.654;21.250;2022-10-16T06:37:53;17.40;99.90
59311;DHT22;45078;51.654;21.250;2022-10-16T06:40:19;17.60;99.90
59311;DHT22;45078;51.654;21.250;2022-10-16T06:42:44;17.50;99.90
59311;DHT22;45078;51.654;21.250;2022-10-16T06:45:10;17.50;99.90
59311;DHT22;45078;51.654;21.250;2022-10-16T06:47:36;17.50;99.90
59311;DHT22;45078;51.654;21.250;2022-10-16T06:50:03;17.40;99.90
59311;DHT22;45078;51.654;21.250;2022-10-16T06:52:29;17.10;99.90
59311;DHT22;45078;51.654;21.250;2022-10-16T06:54:55;16.70;99.90
59311;DHT22;45078;51.654;21.250;2022-10-16T06:57:21;16.40;99.90
59311;DHT22;45078;51.654;21.250;2022-10-16T06:59:47;16.10;99.90
59311;DHT22;45078;51.654;21.250;2022-10-16T07:02:12;16.20;99.90
59311;DHT22;45078;51.654;21.250;2022-10-16T07:04:38;16.50;99.90
59311;DHT22;45078;51.654;21.250;2022-10-16T07:07:04;16.60;99.90
59311;DHT22;45078;51.654;21.250;2022-10-16T07:09:30;16.30;99.90
59311;DHT22;45078;51.654;21.250;2022-10-16T07:11:56;16.30;99.90
59311;DHT22;45078;51.654;21.250;2022-10-16T07:14:22;16.60;99.90
59311;DHT22;45078;51.654;21.250;2022-10-16T07:16:47;16.60;99.90
59311;DHT22;45078;51.654;21.250;2022-10-16T07:19:14;16.50;99.90
59311;DHT22;45078;51.654;21.250;2022-10-16T07:21:41;16.50;99.90
59311;DHT22;45078;51.654;21.250;2022-10-16T07:24:12;16.50;99.90
59311;DHT22;45078;51.654;21.250;2022-10-16T07:26:39;16.60;99.90
59311;DHT22;45078;51.654;21.250;2022-10-16T07:29:11;16.60;99.90
59311;DHT22;45078;51.654;21.250;2022-10-16T07:31:39;16.30;99.90
59311;DHT22;45078;51.654;21.250;2022-10-16T07:34:05;16.40;99.90
59311;DHT22;45078;51.654;21.250;2022-10-16T07:36:31;16.40;99.90
59311;DHT22;45078;51.654;21.250;2022-10-16T07:38:57;16.30;99.90
59311;DHT22;45078;51.654;21.250;2022-10-16T07:41:23;16.40;99.90
59311;DHT22;45078;51.654;21.250;2022-10-16T07:43:51;16.30;99.90
59311;DHT22;45078;51.654;21.250;2022-10-16T07:46:17;16.30;99.90
59311;DHT22;45078;51.654;21.250;2022-10-16T07:48:45;16.30;99.90
59311;DHT22;45078;51.654;21.250;2022-10-16T07:51:23;16.40;99.90
59311;DHT22;45078;51.654;21.250;2022-10-16T07:53:49;16.30;99.90
59311;DHT22;45078;51.654;21.250;2022-10-16T07:56:17;16.40;99.90
59311;DHT22;45078;51.654;21.250;2022-10-16T07:58:43;16.60;99.90
59311;DHT22;45078;51.654;21.250;2022-10-16T08:01:11;16.70;99.90
59311;DHT22;45078;51.654;21.250;2022-10-16T08:03:40;16.60;99.90
59311;DHT22;45078;51.654;21.250;2022-10-16T08:06:06;16.80;99.90
59311;DHT22;45078;51.654;21.250;2022-10-16T08:08:32;16.90;99.90
59311;DHT22;45078;51.654;21.250;2022-10-16T08:10:58;17.10;99.90
59311;DHT22;45078;51.654;21.250;2022-10-16T08:13:24;17.00;99.90
59311;DHT22;45078;51.654;21.250;2022-10-16T08:15:50;17.30;99.90
59311;DHT22;45078;51.654;21.250;2022-10-16T08:18:16;17.40;99.90
59311;DHT22;45078;51.654;21.250;2022-10-16T08:20:42;17.50;99.90
59311;DHT22;45078;51.654;21.250;2022-10-16T08:23:10;17.50;99.90
59311;DHT22;45078;51.654;21.250;2022-10-16T08:25:37;17.60;99.90
59311;DHT22;45078;51.654;21.250;2022-10-16T08:28:07;17.60;99.90
59311;DHT22;45078;51.654;21.250;2022-10-16T08:30:33;17.60;99.90
59311;DHT22;45078;51.654;21.250;2022-10-16T08:32:59;17.70;99.90
59311;DHT22;45078;51.654;21.250;2022-10-16T08:35:25;17.90;99.90
59311;DHT22;45078;51.654;21.250;2022-10-16T08:37:51;18.00;99.90
59311;DHT22;45078;51.654;21.250;2022-10-16T08:40:26;18.10;99.90
59311;DHT22;45078;51.654;21.250;2022-10-16T08:48:46;18.40;99.90
59311;DHT22;45078;51.654;21.250;2022-10-16T08:51:28;18.40;99.90
59311;DHT22;45078;51.654;21.250;2022-10-16T08:53:57;18.30;99.90
59311;DHT22;45078;51.654;21.250;2022-10-16T08:56:24;18.50;99.90
59311;DHT22;45078;51.654;21.250;2022-10-16T08:58:51;18.60;99.90
59311;DHT22;45078;51.654;21.250;2022-10-16T09:01:20;18.80;99.90
59311;DHT22;45078;51.654;21.250;2022-10-16T09:12:18;18.90;99.90
59311;DHT22;45078;51.654;21.250;2022-10-16T09:14:54;18.80;99.90
59311;DHT22;45078;51.654;21.250;2022-10-16T09:17:30;18.90;99.90
59311;DHT22;45078;51.654;21.250;2022-10-16T09:20:19;19.10;99.90
59311;DHT22;45078;51.654;21.250;2022-10-16T09:22:45;19.20;99.90
59311;DHT22;45078;51.654;21.250;2022-10-16T09:25:16;19.30;99.90
59311;DHT22;45078;51.654;21.250;2022-10-16T09:27:47;19.20;99.90
59311;DHT22;45078;51.654;21.250;2022-10-16T09:30:16;19.10;99.90
59311;DHT22;45078;51.654;21.250;2022-10-16T09:32:43;19.20;99.90
59311;DHT22;45078;51.654;21.250;2022-10-16T09:35:18;19.30;99.90
59311;DHT22;45078;51.654;21.250;2022-10-16T09:37:47;19.30;99.90
59311;DHT22;45078;51.654;21.250;2022-10-16T09:40:25;19.20;99.90
59311;DHT22;45078;51.654;21.250;2022-10-16T09:42:56;19.20;99.90
59311;DHT22;45078;51.654;21.250;2022-10-16T09:45:24;19.20;99.90
59311;DHT22;45078;51.654;21.250;2022-10-16T09:47:50;19.20;99.90
59311;DHT22;45078;51.654;21.250;2022-10-16T09:50:26;19.40;99.90
59311;DHT22;45078;51.654;21.250;2022-10-16T09:53:12;19.40;99.90
59311;DHT22;45078;51.654;21.250;2022-10-16T09:55:49;19.40;99.90
59311;DHT22;45078;51.654;21.250;2022-10-16T09:58:15;19.50;99.90
59311;DHT22;45078;51.654;21.250;2022-10-16T10:00:42;19.60;99.90
59311;DHT22;45078;51.654;21.250;2022-10-16T10:03:39;19.60;99.90
59311;DHT22;45078;51.654;21.250;2022-10-16T10:08:51;19.50;99.90
59311;DHT22;45078;51.654;21.250;2022-10-16T10:11:17;19.40;99.90
59311;DHT22;45078;51.654;21.250;2022-10-16T10:13:43;19.60;99.90
59311;DHT22;45078;51.654;21.250;2022-10-16T10:16:09;19.70;99.90
59311;DHT22;45078;51.654;21.250;2022-10-16T10:18:35;20.00;99.90
59311;DHT22;45078;51.654;21.250;2022-10-16T10:21:02;20.00;99.90
59311;DHT22;45078;51.654;21.250;2022-10-16T10:23:29;20.10;99.90
59311;DHT22;45078;51.654;21.250;2022-10-16T10:26:18;20.20;99.90
59311;DHT22;45078;51.654;21.250;2022-10-16T10:35:01;20.30;99.90
59311;DHT22;45078;51.654;21.250;2022-10-16T10:40:22;20.40;99.90
59311;DHT22;45078;51.654;21.250;2022-10-16T10:45:50;20.60;99.90
59311;DHT22;45078;51.654;21.250;2022-10-16T10:51:19;20.50;99.90
59311;DHT22;45078;51.654;21.250;2022-10-16T10:56:41;20.30;99.90
59311;DHT22;45078;51.654;21.250;2022-10-16T11:04:44;20.20;99.90
59311;DHT22;45078;51.654;21.250;2022-10-16T11:07:24;20.30;99.90
59311;DHT22;45078;51.654;21.250;2022-10-16T11:09:56;20.40;99.90
59311;DHT22;45078;51.654;21.250;2022-10-16T11:12:31;20.50;99.90
59311;DHT22;45078;51.654;21.250;2022-10-16T11:17:55;20.80;99.90
59311;DHT22;45078;51.654;21.250;2022-10-16T11:20:51;20.80;99.90
59311;DHT22;45078;51.654;21.250;2022-10-16T11:26:21;20.70;99.90
59311;DHT22;45078;51.654;21.250;2022-10-16T11:28:54;20.80;99.90
59311;DHT22;45078;51.654;21.250;2022-10-16T11:31:41;20.90;99.90
59311;DHT22;45078;51.654;21.250;2022-10-16T11:39:35;21.10;99.90
59311;DHT22;45078;51.654;21.250;2022-10-16T11:42:22;21.20;99.90
59311;DHT22;45078;51.654;21.250;2022-10-16T11:47:42;21.30;99.90
59311;DHT22;45078;51.654;21.250;2022-10-16T11:50:22;21.10;99.90
59311;DHT22;45078;51.654;21.250;2022-10-16T11:53:03;21.20;99.90
59311;DHT22;45078;51.654;21.250;2022-10-16T11:55:39;21.20;99.90
59311;DHT22;45078;51.654;21.250;2022-10-16T11:58:07;21.30;99.90
59311;DHT22;45078;51.654;21.250;2022-10-16T12:00:43;21.20;99.90
59311;DHT22;45078;51.654;21.250;2022-10-16T12:03:22;21.20;99.90
59311;DHT22;45078;51.654;21.250;2022-10-16T12:06:05;21.10;99.90
59311;DHT22;45078;51.654;21.250;2022-10-16T12:08:34;20.90;99.90
59311;DHT22;45078;51.654;21.250;2022-10-16T12:14:03;20.80;99.90
59311;DHT22;45078;51.654;21.250;2022-10-16T12:16:29;20.60;99.90
59311;DHT22;45078;51.654;21.250;2022-10-16T12:19:12;20.60;99.90
59311;DHT22;45078;51.654;21.250;2022-10-16T12:21:38;20.60;99.90
59311;DHT22;45078;51.654;21.250;2022-10-16T12:24:05;20.50;99.90
59311;DHT22;45078;51.654;21.250;2022-10-16T12:26:34;20.50;99.90
59311;DHT22;45078;51.654;21.250;2022-10-16T12:29:23;20.50;99.90
59311;DHT22;45078;51.654;21.250;2022-10-16T12:31:52;20.60;99.90
59311;DHT22;45078;51.654;21.250;2022-10-16T12:37:14;20.70;99.90
59311;DHT22;45078;51.654;21.250;2022-10-16T12:39:44;20.70;99.90
59311;DHT22;45078;51.654;21.250;2022-10-16T12:44:59;20.60;99.90
59311;DHT22;45078;51.654;21.250;2022-10-16T12:49:58;20.50;99.90
59311;DHT22;45078;51.654;21.250;2022-10-16T12:52:43;20.40;99.90
59311;DHT22;45078;51.654;21.250;2022-10-16T12:55:17;20.40;99.90
59311;DHT22;45078;51.654;21.250;2022-10-16T13:09:01;20.40;99.90
59311;DHT22;45078;51.654;21.250;2022-10-16T13:17:02;20.50;99.90
59311;DHT22;45078;51.654;21.250;2022-10-16T13:19:52;20.50;99.90
59311;DHT22;45078;51.654;21.250;2022-10-16T13:22:33;20.50;99.90
59311;DHT22;45078;51.654;21.250;2022-10-16T13:28:07;20.30;99.90
59311;DHT22;45078;51.654;21.250;2022-10-16T13:30:43;20.40;99.90
59311;DHT22;45078;51.654;21.250;2022-10-16T13:33:16;20.40;99.90
59311;DHT22;45078;51.654;21.250;2022-10-16T13:35:50;20.40;99.90
59311;DHT22;45078;51.654;21.250;2022-10-16T13:38:19;20.40;99.90
59311;DHT22;45078;51.654;21.250;2022-10-16T13:40:54;20.30;99.90
59311;DHT22;45078;51.654;21.250;2022-10-16T13:43:31;20.30;99.90
59311;DHT22;45078;51.654;21.250;2022-10-16T13:46:06;20.20;99.90
59311;DHT22;45078;51.654;21.250;2022-10-16T13:48:33;20.20;99.90
59311;DHT22;45078;51.654;21.250;2022-10-16T13:53:35;20.40;99.90
59311;DHT22;45078;51.654;21.250;2022-10-16T13:56:10;20.40;99.90
59311;DHT22;45078;51.654;21.250;2022-10-16T13:58:36;20.30;99.90
59311;DHT22;45078;51.654;21.250;2022-10-16T14:01:28;20.30;99.90
59311;DHT22;45078;51.654;21.250;2022-10-16T14:04:01;20.20;99.90
59311;DHT22;45078;51.654;21.250;2022-10-16T14:06:28;20.10;99.90
59311;DHT22;45078;51.654;21.250;2022-10-16T14:09:06;20.00;99.90
59311;DHT22;45078;51.654;21.250;2022-10-16T14:11:44;20.00;99.90
59311;DHT22;45078;51.654;21.250;2022-10-16T14:14:12;20.00;99.90
59311;DHT22;45078;51.654;21.250;2022-10-16T14:16:41;20.00;99.90
59311;DHT22;45078;51.654;21.250;2022-10-16T14:19:34;19.90;99.90
59311;DHT22;45078;51.654;21.250;2022-10-16T14:22:01;20.00;99.90
59311;DHT22;45078;51.654;21.250;2022-10-16T14:24:31;20.00;99.90
59311;DHT22;45078;51.654;21.250;2022-10-16T14:26:59;20.00;99.90
59311;DHT22;45078;51.654;21.250;2022-10-16T14:29:26;20.10;99.90
59311;DHT22;45078;51.654;21.250;2022-10-16T14:32:00;20.00;99.90
59311;DHT22;45078;51.654;21.250;2022-10-16T14:34:29;20.00;99.90
59311;DHT22;45078;51.654;21.250;2022-10-16T14:37:05;20.10;99.90
59311;DHT22;45078;51.654;21.250;2022-10-16T14:39:34;20.00;99.90
59311;DHT22;45078;51.654;21.250;2022-10-16T14:42:01;20.10;99.90
59311;DHT22;45078;51.654;21.250;2022-10-16T14:44:30;20.10;99.90
59311;DHT22;45078;51.654;21.250;2022-10-16T14:46:57;20.20;99.90
59311;DHT22;45078;51.654;21.250;2022-10-16T14:49:25;20.20;99.90
59311;DHT22;45078;51.654;21.250;2022-10-16T14:51:53;20.20;99.90
59311;DHT22;45078;51.654;21.250;2022-10-16T14:54:19;20.20;99.90
59311;DHT22;45078;51.654;21.250;2022-10-16T14:56:51;20.20;99.90
59311;DHT22;45078;51.654;21.250;2022-10-16T14:59:33;20.20;99.90
59311;DHT22;45078;51.654;21.250;2022-10-16T15:04:54;20.10;99.90
59311;DHT22;45078;51.654;21.250;2022-10-16T15:07:20;20.00;99.90
59311;DHT22;45078;51.654;21.250;2022-10-16T15:09:46;20.10;99.90
59311;DHT22;45078;51.654;21.250;2022-10-16T15:12:12;20.00;99.90
59311;DHT22;45078;51.654;21.250;2022-10-16T15:14:38;19.80;99.90
59311;DHT22;45078;51.654;21.250;2022-10-16T15:17:04;19.80;99.90
59311;DHT22;45078;51.654;21.250;2022-10-16T15:19:30;19.90;99.90
59311;DHT22;45078;51.654;21.250;2022-10-16T15:21:56;19.80;99.90
59311;DHT22;45078;51.654;21.250;2022-10-16T15:24:22;19.60;99.90
59311;DHT22;45078;51.654;21.250;2022-10-16T15:26:48;19.60;99.90
59311;DHT22;45078;51.654;21.250;2022-10-16T15:29:15;19.60;99.90
59311;DHT22;45078;51.654;21.250;2022-10-16T15:31:40;19.60;99.90
59311;DHT22;45078;51.654;21.250;2022-10-16T15:34:11;19.50;99.90
59311;DHT22;45078;51.654;21.250;2022-10-16T15:36:38;19.40;99.90
59311;DHT22;45078;51.654;21.250;2022-10-16T15:39:15;19.30;99.90
59311;DHT22;45078;51.654;21.250;2022-10-16T15:41:42;19.30;99.90
59311;DHT22;45078;51.654;21.250;2022-10-16T15:44:08;19.30;99.90
59311;DHT22;45078;51.654;21.250;2022-10-16T15:46:34;19.30;99.90
59311;DHT22;45078;51.654;21.250;2022-10-16T15:49:01;19.10;99.90
59311;DHT22;45078;51.654;21.250;2022-10-16T15:51:27;19.00;99.90
59311;DHT22;45078;51.654;21.250;2022-10-16T15:53:56;19.00;99.90
59311;DHT22;45078;51.654;21.250;2022-10-16T15:56:22;18.90;99.90
59311;DHT22;45078;51.654;21.250;2022-10-16T15:58:51;18.80;99.90
59311;DHT22;45078;51.654;21.250;2022-10-16T16:01:17;18.70;99.90
59311;DHT22;45078;51.654;21.250;2022-10-16T16:03:43;18.70;99.90
59311;DHT22;45078;51.654;21.250;2022-10-16T16:06:11;18.70;99.90
59311;DHT22;45078;51.654;21.250;2022-10-16T16:08:38;18.70;99.90
59311;DHT22;45078;51.654;21.250;2022-10-16T16:11:10;18.70;99.90
59311;DHT22;45078;51.654;21.250;2022-10-16T16:13:36;18.60;99.90
59311;DHT22;45078;51.654;21.250;2022-10-16T16:16:07;18.60;99.90
59311;DHT22;45078;51.654;21.250;2022-10-16T16:18:33;18.50;99.90
59311;DHT22;45078;51.654;21.250;2022-10-16T16:20:59;18.50;99.90
59311;DHT22;45078;51.654;21.250;2022-10-16T16:23:25;18.50;99.90
59311;DHT22;45078;51.654;21.250;2022-10-16T16:26:29;18.40;99.90
59311;DHT22;45078;51.654;21.250;2022-10-16T16:28:59;18.30;99.90
59311;DHT22;45078;51.654;21.250;2022-10-16T16:31:28;18.30;99.90
59311;DHT22;45078;51.654;21.250;2022-10-16T16:33:54;18.30;99.90
59311;DHT22;45078;51.654;21.250;2022-10-16T16:36:22;18.10;99.90
59311;DHT22;45078;51.654;21.250;2022-10-16T16:38:50;18.10;99.90
59311;DHT22;45078;51.654;21.250;2022-10-16T16:41:19;18.00;99.90
59311;DHT22;45078;51.654;21.250;2022-10-16T16:43:45;18.00;99.90
59311;DHT22;45078;51.654;21.250;2022-10-16T16:46:13;18.00;99.90
59311;DHT22;45078;51.654;21.250;2022-10-16T16:48:40;17.90;99.90
59311;DHT22;45078;51.654;21.250;2022-10-16T16:51:09;17.90;99.90
59311;DHT22;45078;51.654;21.250;2022-10-16T16:53:36;17.90;99.90
59311;DHT22;45078;51.654;21.250;2022-10-16T16:56:06;17.80;99.90
59311;DHT22;45078;51.654;21.250;2022-10-16T16:58:32;17.80;99.90
59311;DHT22;45078;51.654;21.250;2022-10-16T17:00:59;17.70;99.90
59311;DHT22;45078;51.654;21.250;2022-10-16T17:03:28;17.60;99.90
59311;DHT22;45078;51.654;21.250;2022-10-16T17:06:13;17.60;99.90
59311;DHT22;45078;51.654;21.250;2022-10-16T17:08:40;17.60;99.90
59311;DHT22;45078;51.654;21.250;2022-10-16T17:11:10;17.60;99.90
59311;DHT22;45078;51.654;21.250;2022-10-16T17:13:39;17.60;99.90
59311;DHT22;45078;51.654;21.250;2022-10-16T17:16:06;17.50;99.90
59311;DHT22;45078;51.654;21.250;2022-10-16T17:18:33;17.50;99.90
59311;DHT22;45078;51.654;21.250;2022-10-16T17:21:04;17.50;99.90
59311;DHT22;45078;51.654;21.250;2022-10-16T17:23:33;17.50;99.90
59311;DHT22;45078;51.654;21.250;2022-10-16T17:26:04;17.40;99.90
59311;DHT22;45078;51.654;21.250;2022-10-16T17:28:30;17.40;99.90
59311;DHT22;45078;51.654;21.250;2022-10-16T17:31:04;17.30;99.90